createdAt,value
2019-01-11T17:54:46.402Z,97.60
2019-01-11T18:00:09.890Z,104.07
2019-01-11T18:05:30.308Z,95.20
2019-01-11T18:11:04.045Z,103.43
2019-01-11T18:16:24.949Z,105.13
2019-01-11T18:21:45.559Z,93.97
2019-01-11T18:27:05.965Z,93.33
2019-01-11T18:32:26.803Z,83.10
2019-01-11T18:37:47.657Z,74.93
2019-01-11T18:43:08.350Z,82.93
2019-01-11T18:48:33.049Z,79.43
2019-01-11T18:53:53.521Z,85.03
2019-01-11T18:59:14.050Z,81.70
2019-01-11T19:04:34.409Z,85.97
2019-01-11T19:09:55.451Z,89.43
2019-01-11T19:15:21.609Z,86.27
2019-01-11T19:20:41.785Z,86.40
2019-01-11T19:26:02.238Z,91.07
2019-01-11T19:31:23.237Z,99.93
2019-01-11T19:36:43.977Z,90.40
2019-01-11T19:42:04.473Z,87.50
2019-01-11T19:47:25.980Z,73.60
2019-01-11T19:52:48.070Z,89.40
2019-01-11T19:58:08.914Z,84.67
2019-01-11T20:03:29.979Z,77.47
2019-01-11T20:08:50.594Z,76.50
2019-01-11T20:14:11.224Z,89.30
2019-01-11T20:19:32.053Z,99.47
2019-01-11T20:24:55.441Z,80.60
2019-01-11T20:30:24.005Z,91.30
2019-01-11T20:35:44.857Z,71.90
2019-01-11T20:41:05.906Z,65.63
2019-01-11T20:46:26.646Z,70.60
2019-01-11T20:51:47.286Z,68.53
2019-01-11T20:57:07.831Z,69.53
2019-01-11T21:02:28.975Z,75.73
2019-01-11T21:07:49.396Z,61.33
2019-01-11T21:13:09.865Z,66.20
2019-01-11T21:18:30.738Z,66.87
2019-01-11T21:23:51.511Z,69.43
2019-01-11T21:29:11.826Z,63.57
2019-01-11T21:34:32.198Z,66.00
